Peru, IL

1:21 AM CST on November 24, 2017 (GMT -0600)
Illinois Valley Regional-Duncan

Weather History for KVYS - October, 2014

Change the Weather History Date:

Friday, October 17, 2014

  Actual Average Record
Temperature  
Mean Temperature 54 °F -  
Max Temperature 58 °F 63 °F 86 °F (2016)
Min Temperature 50 °F 40 °F 25 °F (1970)
Degree Days  
Heating Degree Days 12    
Growing Degree Days 4 (Base 50)    
Moisture  
Dew Point 47 °F    
Average Humidity 75    
Maximum Humidity 85    
Minimum Humidity 66    
Precipitation  
Precipitation 0.01 in - - ()
Sea Level Pressure  
Sea Level Pressure 29.73 in    
Wind  
Wind Speed 13 mph (West)    
Max Wind Speed 23 mph    
Max Gust Speed 31 mph    
Visibility 10 miles    
Events      
Averages and records for this station are not official NWS values.
T = Trace of Precipitation, MM = Missing Value Source: NWS Daily Summary

Daily Weather History Graph

Daily Weather History Graph

Search for Another Location

Airport or City:

Trip Planner

Search our weather history database for the weather conditions in past years. The results will help you decide how hot, cold, wet, or windy it might be!

Date:

Astronomy

Oct. 17, 2014 Rise Set
Actual Time 7:10 AM CDT 6:12 PM CDT
Civil Twilight 6:42 AM CDT 6:40 PM CDT
Nautical Twilight 6:10 AM CDT 7:12 PM CDT
Astronomical Twilight 5:38 AM CDT 7:44 PM CDT
Moon 1:11 AM CDT (10/17) 3:02 PM CDT (10/17)
Length of Visible Light 11h 57m
Length of Day
11h 01m
Waning Crescent, 32% of the Moon is Illuminated
Oct 17
Waning Crescent
Oct 23
New
Oct 30
First Quarter
Nov 6
Full
Nov 14
Last Quarter

Hourly Weather History & Observations

Time (CDT) Temp. Dew Point Humidity Pressure Visibility Wind Dir Wind Speed Gust Speed Precip Events Conditions
12:15 AM 54.9 °F 50.0 °F 84% 29.64 in 10.0 mi SSW 10.4 mph - N/A   Scattered Clouds
12:35 AM 55.0 °F 50.0 °F 83% 29.63 in 10.0 mi SSW 11.5 mph - N/A   Clear
12:55 AM 55.6 °F 49.3 °F 79% 29.62 in 10.0 mi SSW 11.5 mph - N/A   Clear
1:15 AM 54.7 °F 49.1 °F 81% 29.62 in 10.0 mi SW 9.2 mph - N/A   Clear
1:35 AM 55.0 °F 49.1 °F 80% 29.62 in 10.0 mi SW 11.5 mph - N/A   Clear
1:55 AM 55.2 °F 49.3 °F 80% 29.61 in 10.0 mi WSW 11.5 mph - N/A   Clear
2:15 AM 54.9 °F 49.1 °F 81% 29.61 in 10.0 mi WSW 10.4 mph - N/A   Clear
2:35 AM 54.7 °F 49.1 °F 81% 29.61 in 10.0 mi WSW 10.4 mph - N/A   Clear
2:55 AM 53.4 °F 48.2 °F 82% 29.61 in 10.0 mi WSW 10.4 mph - N/A   Clear
3:15 AM 52.9 °F 47.8 °F 83% 29.61 in 10.0 mi WSW 10.4 mph - N/A   Clear
3:35 AM 52.9 °F 47.7 °F 82% 29.60 in 10.0 mi West 11.5 mph - N/A   Clear
3:55 AM 52.7 °F 47.1 °F 81% 29.61 in 10.0 mi West 10.4 mph - N/A   Clear
4:15 AM 52.2 °F 46.9 °F 82% 29.61 in 10.0 mi West 9.2 mph - N/A   Clear
4:35 AM 50.9 °F 46.0 °F 83% 29.61 in 10.0 mi West 6.9 mph - N/A   Clear
4:55 AM 50.2 °F 45.7 °F 85% 29.62 in 10.0 mi West 9.2 mph - N/A   Clear
5:15 AM 50.9 °F 46.0 °F 83% 29.62 in 10.0 mi West 6.9 mph - N/A   Clear
5:35 AM 51.4 °F 45.7 °F 81% 29.63 in 10.0 mi West 10.4 mph - N/A   Clear
5:55 AM 50.9 °F 45.5 °F 82% 29.63 in 10.0 mi West 11.5 mph - N/A   Clear
6:15 AM 50.7 °F 45.1 °F 81% 29.63 in 10.0 mi West 10.4 mph - N/A   Clear
6:35 AM 50.4 °F 44.8 °F 81% 29.64 in 10.0 mi West 11.5 mph - N/A   Clear
6:55 AM 50.9 °F 44.8 °F 80% 29.65 in 10.0 mi West 11.5 mph - N/A   Clear
7:15 AM 50.4 °F 44.6 °F 81% 29.65 in 10.0 mi West 11.5 mph 17.3 mph N/A   Clear
7:35 AM 50.7 °F 44.8 °F 80% 29.65 in 10.0 mi West 12.7 mph 17.3 mph N/A   Clear
7:55 AM 51.1 °F 45.1 °F 80% 29.66 in 10.0 mi West 12.7 mph 19.6 mph N/A   Clear
8:15 AM 52.5 °F 45.7 °F 78% 29.66 in 10.0 mi West 12.7 mph 19.6 mph N/A   Clear
8:35 AM 53.1 °F 45.9 °F 77% 29.67 in 10.0 mi West 12.7 mph 23.0 mph N/A   Clear
8:55 AM 54.7 °F 46.8 °F 75% 29.67 in 10.0 mi West 16.1 mph 23.0 mph N/A   Clear
9:15 AM 55.2 °F 46.6 °F 73% 29.67 in 10.0 mi WNW 11.5 mph 20.7 mph 0.01 in   Clear
9:35 AM 55.4 °F 46.9 °F 73% 29.68 in 10.0 mi WNW 15.0 mph 20.7 mph 0.01 in   Clear
9:55 AM 55.6 °F 46.9 °F 73% 29.69 in 10.0 mi WNW 17.3 mph 21.9 mph 0.01 in   Clear
10:15 AM 56.8 °F 47.3 °F 70% 29.70 in 10.0 mi WNW 16.1 mph 24.2 mph N/A   Clear
10:35 AM 56.7 °F 46.2 °F 68% 29.71 in 10.0 mi WNW 17.3 mph 28.8 mph N/A   Scattered Clouds
10:55 AM 56.3 °F 46.4 °F 69% 29.71 in 10.0 mi WNW 13.8 mph 28.8 mph N/A   Overcast
11:15 AM 56.3 °F 46.6 °F 70% 29.71 in 10.0 mi WNW 11.5 mph 23.0 mph N/A   Overcast
11:35 AM 56.3 °F 46.4 °F 69% 29.71 in 10.0 mi WNW 19.6 mph 26.5 mph N/A   Overcast
11:55 AM 56.3 °F 46.4 °F 69% 29.72 in 10.0 mi WNW 16.1 mph 28.8 mph N/A   Overcast
12:15 PM 57.0 °F 46.9 °F 69% 29.72 in 10.0 mi WNW 17.3 mph 25.3 mph N/A   Overcast
12:35 PM 57.4 °F 46.9 °F 68% 29.72 in 10.0 mi WNW 19.6 mph 31.1 mph N/A   Overcast
12:55 PM 57.0 °F 46.8 °F 69% 29.72 in 10.0 mi WNW 21.9 mph 26.5 mph N/A   Overcast
1:15 PM 57.0 °F 47.3 °F 70% 29.72 in 10.0 mi West 21.9 mph 25.3 mph N/A   Overcast
1:35 PM 56.7 °F 46.9 °F 70% 29.72 in 10.0 mi West 23.0 mph 27.6 mph N/A   Overcast
1:55 PM 56.7 °F 46.8 °F 69% 29.73 in 10.0 mi WNW 19.6 mph 27.6 mph N/A   Overcast
2:15 PM 57.4 °F 46.9 °F 68% 29.74 in 10.0 mi WNW 19.6 mph 29.9 mph N/A   Overcast
2:35 PM 57.4 °F 46.6 °F 67% 29.74 in 10.0 mi West 17.3 mph 25.3 mph N/A   Overcast
2:55 PM 57.2 °F 46.8 °F 68% 29.75 in 10.0 mi WNW 15.0 mph 24.2 mph N/A   Overcast
3:15 PM 57.2 °F 46.4 °F 67% 29.75 in 10.0 mi WNW 18.4 mph 23.0 mph N/A   Overcast
3:35 PM 57.4 °F 46.2 °F 66% 29.76 in 10.0 mi WNW 19.6 mph 24.2 mph N/A   Overcast
3:55 PM 56.7 °F 46.0 °F 68% 29.77 in 10.0 mi WNW 17.3 mph 27.6 mph N/A   Overcast
4:15 PM 56.5 °F 46.0 °F 68% 29.77 in 10.0 mi WNW 17.3 mph 25.3 mph N/A   Overcast
4:35 PM 56.5 °F 45.9 °F 68% 29.79 in 10.0 mi WNW 13.8 mph 21.9 mph N/A   Overcast
4:55 PM 56.3 °F 45.7 °F 68% 29.80 in 10.0 mi WNW 18.4 mph 28.8 mph N/A   Overcast
5:15 PM 56.3 °F 45.5 °F 67% 29.81 in 10.0 mi WNW 16.1 mph 27.6 mph N/A   Overcast
5:35 PM 56.3 °F 45.5 °F 67% 29.81 in 7.0 mi WNW 19.6 mph 27.6 mph N/A   Overcast
5:55 PM 56.1 °F 46.0 °F 69% 29.82 in 10.0 mi WNW 12.7 mph 18.4 mph N/A   Overcast
6:15 PM 55.4 °F 45.5 °F 69% 29.83 in 10.0 mi WNW 16.1 mph 21.9 mph N/A   Overcast
6:35 PM 55.2 °F 45.7 °F 70% 29.84 in 10.0 mi WNW 15.0 mph 19.6 mph N/A   Overcast
6:55 PM 54.9 °F 45.5 °F 71% 29.85 in 10.0 mi WNW 15.0 mph 18.4 mph N/A   Overcast
7:15 PM 54.7 °F 45.5 °F 71% 29.86 in 10.0 mi WNW 10.4 mph - N/A   Overcast
7:35 PM 54.7 °F 45.9 °F 72% 29.86 in 10.0 mi WNW 10.4 mph - N/A   Overcast
7:55 PM 54.7 °F 46.0 °F 73% 29.87 in 10.0 mi WNW 12.7 mph 18.4 mph N/A   Overcast
8:15 PM 54.7 °F 46.4 °F 74% 29.88 in 10.0 mi WNW 10.4 mph - N/A   Overcast
8:35 PM 54.7 °F 46.4 °F 74% 29.89 in 10.0 mi WNW 11.5 mph - N/A   Overcast
8:55 PM 54.1 °F 46.2 °F 75% 29.89 in 10.0 mi WNW 11.5 mph - N/A   Overcast
9:15 PM 53.8 °F 46.0 °F 75% 29.90 in 10.0 mi WNW 9.2 mph - N/A   Overcast
9:35 PM 53.6 °F 45.9 °F 75% 29.90 in 10.0 mi WNW 10.4 mph - N/A   Overcast
9:55 PM 53.6 °F 45.7 °F 75% 29.90 in 10.0 mi WNW 12.7 mph - N/A   Overcast
10:15 PM 53.6 °F 45.7 °F 75% 29.91 in 10.0 mi NW 12.7 mph 19.6 mph N/A   Overcast
10:35 PM 53.2 °F 46.0 °F 77% 29.91 in 10.0 mi WNW 13.8 mph 18.4 mph N/A   Overcast
10:55 PM 52.9 °F 46.4 °F 79% 29.91 in 10.0 mi WNW 11.5 mph - N/A   Overcast
11:15 PM 52.7 °F 46.4 °F 79% 29.92 in 10.0 mi WNW 10.4 mph 17.3 mph N/A   Overcast
11:35 PM 52.7 °F 46.4 °F 79% 29.92 in 10.0 mi WNW 12.7 mph - N/A   Overcast
11:55 PM 52.7 °F 46.4 °F 79% 29.92 in 10.0 mi NW 11.5 mph - N/A   Overcast